Time;durP1;ratioP1;P1;durP2;ratioP2;P2;SDS_P1;SDS_P2;PMS_P1;PMS_P2;Temp;Humidity;BMP_temperature;BMP_pressure;BME280_temperature;BME280_humidity;BME280_pressure;Samples;Min_cycle;Max_cycle;Signal;HPM_P1;HPM_P2
2022/10/19 00:00:37;;;;;;;;;;;;;;;;;;2059078;28;19973;-86
2022/10/19 00:01:38;;;;;;;;;;;;;;;;;;2059036;28;19919;-86
2022/10/19 00:02:38;;;;;;;;;;;;;;;;;;2058879;28;19922;-86
2022/10/19 00:03:38;;;;;;;;;;;;;;;;;;2062483;28;20313;-86
2022/10/19 00:04:39;;;;;;;;;;;;;;;;;;2057445;28;19938;-86
2022/10/19 00:05:39;;;;;;;;;;;;;;;;;;2057387;28;20369;-86
2022/10/19 00:06:41;;;;;;;;;;;;;;;;;;2059235;28;19918;-96
2022/10/19 00:07:41;;;;;;;;;;;;;;;;;;2053076;29;19919;-96
2022/10/19 00:16:52;;;;;;;;;;;;;;;;;;1700696;26;19930;-88
2022/10/19 00:17:52;;;;;;;;;;;;;;;;;;2056527;28;19914;-86
2022/10/19 00:18:55;;;;;;;;;;;;;;;;;;2056532;28;20292;-87
2022/10/19 00:19:55;;;;;;;;;;;;;;;;;;2065161;28;19914;-88
2022/10/19 00:21:01;;;;;;;;;;;;;;;;;;2065016;28;19917;-87
2022/10/19 00:22:01;;;;;;;;;;;;;;;;;;2065012;28;19960;-88
2022/10/19 00:23:02;;;;;;;;;;;;;;;;;;2056155;28;19918;-88
2022/10/19 00:24:02;;;;;;;;;;;;;;;;;;2056506;28;19914;-88
2022/10/19 00:25:03;;;;;;;;;;;;;;;;;;2064685;28;19914;-87
2022/10/19 00:26:03;;;;;;;;;;;;;;;;;;2065203;28;19936;-88
2022/10/19 00:27:05;;;;;;;;;;;;;;;;;;2056543;28;19982;-88
2022/10/19 00:28:05;;;;;;;;;;;;;;;;;;2056174;28;19914;-88
2022/10/19 00:29:06;;;;;;;;;;;;;;;;;;2056148;28;19915;-87
2022/10/19 00:30:06;;;;;;;;;;;;;;;;;;2048087;29;19945;-87
2022/10/19 00:31:08;;;;;;;;;;;;;;;;;;2055936;28;19969;-86
2022/10/19 00:32:08;;;;;;;;;;;;;;;;;;2064784;28;19982;-87
2022/10/19 00:33:09;;;;;;;;;;;;;;;;;;2056028;28;19914;-87
2022/10/19 00:34:09;;;;;;;;;;;;;;;;;;2056413;28;19938;-87
2022/10/19 00:35:09;;;;;;;;;;;;;;;;;;2055857;28;20682;-87
2022/10/19 00:36:17;;;;;;;;;;;;;;;;;;1709703;28;10108466;-87
2022/10/19 00:37:17;;;;;;;;;;;;;;;;;;2064173;28;20736;-86
2022/10/19 00:38:19;;;;;;;;;;;;;;;;;;2065026;28;19914;-86
2022/10/19 00:39:19;;;;;;;;;;;;;;;;;;2056228;28;19990;-86
2022/10/19 00:40:19;;;;;;;;;;;;;;;;;;2056329;28;19914;-86
2022/10/19 00:41:20;;;;;;;;;;;;;;;;;;2064678;28;19933;-87
2022/10/19 00:42:21;;;;;;;;;;;;;;;;;;2055802;28;19965;-86
2022/10/19 00:43:25;;;;;;;;;;;;;;;;;;2055791;28;20024;-87
2022/10/19 00:44:29;;;;;;;;;;;;;;;;;;1719531;28;10000460;-87
2022/10/19 00:45:29;;;;;;;;;;;;;;;;;;2064089;28;20061;-87
2022/10/19 00:46:30;;;;;;;;;;;;;;;;;;2064992;28;20347;-87
2022/10/19 00:47:31;;;;;;;;;;;;;;;;;;2064763;28;19933;-87
2022/10/19 00:48:31;;;;;;;;;;;;;;;;;;2064670;28;19921;-87
2022/10/19 00:49:34;;;;;;;;;;;;;;;;;;2055936;28;19914;-86
2022/10/19 00:50:34;;;;;;;;;;;;;;;;;;2048133;28;19918;-87
2022/10/19 00:51:36;;;;;;;;;;;;;;;;;;2047858;29;19933;-87
2022/10/19 00:52:36;;;;;;;;;;;;;;;;;;2056272;28;19946;-87
2022/10/19 00:53:37;;;;;;;;;;;;;;;;;;2064743;28;20400;-87
2022/10/19 00:54:39;;;;;;;;;;;;;;;;;;2056022;28;20370;-87
2022/10/19 00:55:40;;;;;;;;;;;;;;;;;;2056249;28;19969;-87
2022/10/19 00:56:41;;;;;;;;;;;;;;;;;;2064524;28;19984;-86
2022/10/19 00:57:41;;;;;;;;;;;;;;;;;;2064730;28;19920;-86
2022/10/19 00:58:42;;;;;;;;;;;;;;;;;;2064609;28;19954;-86
2022/10/19 00:59:44;;;;;;;;;;;;;;;;;;2064737;28;20412;-86
2022/10/19 01:00:44;;;;;;;;;;;;;;;;;;2055856;28;19918;-87
2022/10/19 01:01:45;;;;;;;;;;;;;;;;;;2056420;28;19918;-86
2022/10/19 01:02:46;;;;;;;;;;;;;;;;;;2064746;28;20492;-86
2022/10/19 01:03:46;;;;;;;;;;;;;;;;;;2064933;28;19944;-86
2022/10/19 01:04:47;;;;;;;;;;;;;;;;;;2055791;28;20444;-86
2022/10/19 01:05:48;;;;;;;;;;;;;;;;;;2048009;28;19915;-87
2022/10/19 01:06:48;;;;;;;;;;;;;;;;;;2056249;28;20272;-87
2022/10/19 01:07:48;;;;;;;;;;;;;;;;;;2064737;28;19917;-87
2022/10/19 01:08:49;;;;;;;;;;;;;;;;;;2064672;28;20305;-86
2022/10/19 01:09:49;;;;;;;;;;;;;;;;;;2056023;28;20239;-87
2022/10/19 01:10:49;;;;;;;;;;;;;;;;;;2055660;28;20358;-86
2022/10/19 01:12:16;;;;;;;;;;;;;;;;;;1712211;28;10000549;-87
2022/10/19 01:13:22;;;;;;;;;;;;;;;;;;2055769;28;20064;-87
2022/10/19 01:14:22;;;;;;;;;;;;;;;;;;2064728;28;20016;-87
2022/10/19 01:15:35;;;;;;;;;;;;;;;;;;2064790;28;19944;-88
2022/10/19 01:16:53;;;;;;;;;;;;;;;;;;2059956;28;19925;-87
2022/10/19 01:17:56;;;;;;;;;;;;;;;;;;2058421;28;19914;-87
2022/10/19 01:19:05;;;;;;;;;;;;;;;;;;2056274;28;19914;-87
2022/10/19 01:20:14;;;;;;;;;;;;;;;;;;2057012;28;19914;-87
2022/10/19 01:21:18;;;;;;;;;;;;;;;;;;2065498;28;19926;-86
2022/10/19 01:22:29;;;;;;;;;;;;;;;;;;2072933;28;19921;-87
2022/10/19 01:23:41;;;;;;;;;;;;;;;;;;2064098;28;20075;-87
2022/10/19 01:24:53;;;;;;;;;;;;;;;;;;2065436;28;20408;-87
2022/10/19 01:26:09;;;;;;;;;;;;;;;;;;2072068;28;20373;-87
2022/10/19 01:27:21;;;;;;;;;;;;;;;;;;2066297;28;20088;-88
2022/10/19 01:28:28;;;;;;;;;;;;;;;;;;2064029;28;20388;-88
2022/10/19 01:29:39;;;;;;;;;;;;;;;;;;2064545;28;20385;-88
2022/10/19 01:30:48;;;;;;;;;;;;;;;;;;2063741;28;19913;-88
2022/10/19 01:31:54;;;;;;;;;;;;;;;;;;2056699;28;20381;-88
2022/10/19 01:32:57;;;;;;;;;;;;;;;;;;1701394;28;10348489;-88
2022/10/19 01:34:16;;;;;;;;;;;;;;;;;;2055494;28;19920;-88
2022/10/19 01:35:27;;;;;;;;;;;;;;;;;;2066788;28;20101;-87
2022/10/19 01:36:50;;;;;;;;;;;;;;;;;;2071864;28;19949;-88
2022/10/19 01:38:13;;;;;;;;;;;;;;;;;;2063393;28;19925;-88
2022/10/19 01:39:36;;;;;;;;;;;;;;;;;;2058482;28;20448;-87
2022/10/19 01:40:46;;;;;;;;;;;;;;;;;;2066809;28;19927;-86
2022/10/19 01:41:50;;;;;;;;;;;;;;;;;;2072149;28;20301;-88
2022/10/19 01:43:15;;;;;;;;;;;;;;;;;;2072536;28;19964;-87
2022/10/19 01:44:22;;;;;;;;;;;;;;;;;;2063621;28;19913;-86
2022/10/19 01:45:42;;;;;;;;;;;;;;;;;;2064393;28;19914;-88
2022/10/19 01:46:46;;;;;;;;;;;;;;;;;;2071801;28;19963;-87
2022/10/19 01:48:06;;;;;;;;;;;;;;;;;;2072576;28;19920;-88
2022/10/19 01:49:09;;;;;;;;;;;;;;;;;;2053176;28;19926;-88
2022/10/19 01:50:10;;;;;;;;;;;;;;;;;;2063967;28;19922;-88
2022/10/19 01:51:17;;;;;;;;;;;;;;;;;;2072298;28;19921;-88
2022/10/19 01:52:18;;;;;;;;;;;;;;;;;;2063657;28;19918;-88
2022/10/19 01:53:19;;;;;;;;;;;;;;;;;;2063590;28;20463;-88
2022/10/19 01:54:21;;;;;;;;;;;;;;;;;;2063679;28;19941;-87
2022/10/19 01:55:23;;;;;;;;;;;;;;;;;;2063626;28;20425;-88
2022/10/19 01:56:25;;;;;;;;;;;;;;;;;;2063657;28;19914;-88
2022/10/19 01:57:29;;;;;;;;;;;;;;;;;;2063917;28;20026;-88
2022/10/19 01:58:31;;;;;;;;;;;;;;;;;;2072326;28;19914;-88
2022/10/19 01:59:32;;;;;;;;;;;;;;;;;;2063658;28;19918;-89
2022/10/19 02:00:34;;;;;;;;;;;;;;;;;;2063695;28;20376;-88
2022/10/19 02:01:35;;;;;;;;;;;;;;;;;;2063431;28;19914;-88
2022/10/19 02:02:37;;;;;;;;;;;;;;;;;;2063657;28;19913;-88
2022/10/19 02:03:38;;;;;;;;;;;;;;;;;;2072209;28;19924;-87
2022/10/19 02:04:40;;;;;;;;;;;;;;;;;;2063357;28;20107;-87
2022/10/19 02:05:40;;;;;;;;;;;;;;;;;;1702438;28;10288962;-86
2022/10/19 02:06:41;;;;;;;;;;;;;;;;;;2063380;28;19929;-87
2022/10/19 02:07:42;;;;;;;;;;;;;;;;;;2071792;28;20008;-86
2022/10/19 02:08:44;;;;;;;;;;;;;;;;;;2055731;28;19918;-86
2022/10/19 02:09:44;;;;;;;;;;;;;;;;;;2062314;28;19936;-86
2022/10/19 02:10:45;;;;;;;;;;;;;;;;;;2073801;28;20455;-86
2022/10/19 02:11:48;;;;;;;;;;;;;;;;;;2082618;28;19996;-86
2022/10/19 02:12:48;;;;;;;;;;;;;;;;;;2082154;28;19926;-86
2022/10/19 02:13:53;;;;;;;;;;;;;;;;;;2081151;28;19917;-86
2022/10/19 02:14:55;;;;;;;;;;;;;;;;;;2064587;28;19921;-86
2022/10/19 02:15:57;;;;;;;;;;;;;;;;;;2064255;28;19914;-86
2022/10/19 02:17:00;;;;;;;;;;;;;;;;;;2065179;28;19968;-86
2022/10/19 02:18:01;;;;;;;;;;;;;;;;;;2064670;28;19917;-86
2022/10/19 02:19:01;;;;;;;;;;;;;;;;;;2064257;28;19917;-86
2022/10/19 02:20:03;;;;;;;;;;;;;;;;;;2055707;28;19917;-86
2022/10/19 02:21:03;;;;;;;;;;;;;;;;;;2055481;28;19914;-86
2022/10/19 02:22:04;;;;;;;;;;;;;;;;;;2055344;28;19920;-86
2022/10/19 02:23:05;;;;;;;;;;;;;;;;;;2055585;28;19914;-86
2022/10/19 02:24:05;;;;;;;;;;;;;;;;;;2064455;28;19921;-85
2022/10/19 02:25:07;;;;;;;;;;;;;;;;;;2055667;28;19921;-86
2022/10/19 02:26:07;;;;;;;;;;;;;;;;;;2055755;28;19949;-86
2022/10/19 02:27:09;;;;;;;;;;;;;;;;;;2064784;28;20349;-86
2022/10/19 02:28:09;;;;;;;;;;;;;;;;;;2074007;28;19921;-86
2022/10/19 02:29:10;;;;;;;;;;;;;;;;;;2074287;28;19929;-86
2022/10/19 02:30:12;;;;;;;;;;;;;;;;;;2065505;28;19910;-86
2022/10/19 02:31:13;;;;;;;;;;;;;;;;;;2066549;28;19917;-85
2022/10/19 02:32:13;;;;;;;;;;;;;;;;;;2073223;28;19918;-87
2022/10/19 02:33:14;;;;;;;;;;;;;;;;;;2065281;28;20158;-87
2022/10/19 02:34:14;;;;;;;;;;;;;;;;;;2064586;28;19920;-85
2022/10/19 02:35:14;;;;;;;;;;;;;;;;;;2066398;28;19925;-86
2022/10/19 02:36:15;;;;;;;;;;;;;;;;;;2055730;28;20345;-86
2022/10/19 02:37:15;;;;;;;;;;;;;;;;;;2047688;29;19971;-86
2022/10/19 02:38:18;;;;;;;;;;;;;;;;;;2055528;28;20373;-86
2022/10/19 02:39:19;;;;;;;;;;;;;;;;;;2063908;28;19945;-86
2022/10/19 02:40:19;;;;;;;;;;;;;;;;;;2055835;28;19989;-86
2022/10/19 02:41:35;;;;;;;;;;;;;;;;;;2055639;28;19914;-86
2022/10/19 02:42:47;;;;;;;;;;;;;;;;;;2064699;28;19914;-86
2022/10/19 02:43:49;;;;;;;;;;;;;;;;;;2064865;28;20445;-87
2022/10/19 02:44:52;;;;;;;;;;;;;;;;;;2065014;28;19997;-87
2022/10/19 02:45:58;;;;;;;;;;;;;;;;;;2055660;28;19988;-87
2022/10/19 02:47:22;;;;;;;;;;;;;;;;;;2056160;28;19918;-86
2022/10/19 02:48:23;;;;;;;;;;;;;;;;;;2064346;28;19913;-87
2022/10/19 02:49:26;;;;;;;;;;;;;;;;;;2064143;28;19921;-88
2022/10/19 02:50:26;;;;;;;;;;;;;;;;;;2055576;28;19922;-87
2022/10/19 02:51:35;;;;;;;;;;;;;;;;;;2055278;28;19960;-88
2022/10/19 02:52:36;;;;;;;;;;;;;;;;;;2064330;28;19913;-88
2022/10/19 02:53:36;;;;;;;;;;;;;;;;;;2055221;28;19977;-86
2022/10/19 02:54:38;;;;;;;;;;;;;;;;;;2047474;29;19914;-87
2022/10/19 02:55:38;;;;;;;;;;;;;;;;;;2047452;28;19914;-87
2022/10/19 02:56:38;;;;;;;;;;;;;;;;;;2055510;28;19957;-87
2022/10/19 02:57:39;;;;;;;;;;;;;;;;;;2064379;28;20312;-88
2022/10/19 02:58:39;;;;;;;;;;;;;;;;;;2064422;28;19948;-87
2022/10/19 02:59:39;;;;;;;;;;;;;;;;;;2064104;28;19986;-87
2022/10/19 03:00:39;;;;;;;;;;;;;;;;;;2064218;28;19914;-88
2022/10/19 03:01:40;;;;;;;;;;;;;;;;;;1706860;28;10162474;-88
2022/10/19 03:02:41;;;;;;;;;;;;;;;;;;2055281;28;19964;-87
2022/10/19 03:03:41;;;;;;;;;;;;;;;;;;2055305;28;19997;-87
2022/10/19 03:04:43;;;;;;;;;;;;;;;;;;2055317;28;20076;-88
2022/10/19 03:05:43;;;;;;;;;;;;;;;;;;2063386;28;19949;-88
2022/10/19 03:06:43;;;;;;;;;;;;;;;;;;2055697;28;19914;-88
2022/10/19 03:07:44;;;;;;;;;;;;;;;;;;2047530;29;19919;-87
2022/10/19 03:08:44;;;;;;;;;;;;;;;;;;2055671;28;19914;-87
2022/10/19 03:09:44;;;;;;;;;;;;;;;;;;2063965;28;19913;-87
2022/10/19 03:10:45;;;;;;;;;;;;;;;;;;2064050;28;19921;-87
2022/10/19 03:11:45;;;;;;;;;;;;;;;;;;2055176;28;19918;-87
2022/10/19 03:12:45;;;;;;;;;;;;;;;;;;2055314;28;20092;-87
2022/10/19 03:13:46;;;;;;;;;;;;;;;;;;2055596;28;19918;-88
2022/10/19 03:14:46;;;;;;;;;;;;;;;;;;2047050;29;19914;-87
2022/10/19 03:15:46;;;;;;;;;;;;;;;;;;2047474;29;20303;-87
2022/10/19 03:16:47;;;;;;;;;;;;;;;;;;2060974;28;19928;-87
2022/10/19 03:17:51;;;;;;;;;;;;;;;;;;2072233;28;20235;-87
2022/10/19 03:18:51;;;;;;;;;;;;;;;;;;2063329;28;20413;-87
2022/10/19 03:19:51;;;;;;;;;;;;;;;;;;2063144;28;19974;-87
2022/10/19 03:21:00;;;;;;;;;;;;;;;;;;2063204;28;19913;-87
2022/10/19 03:22:00;;;;;;;;;;;;;;;;;;2064503;28;19940;-86
2022/10/19 03:23:01;;;;;;;;;;;;;;;;;;2063026;28;20008;-86
2022/10/19 03:24:01;;;;;;;;;;;;;;;;;;2055438;28;19921;-87
2022/10/19 03:25:01;;;;;;;;;;;;;;;;;;2063113;28;20494;-86
2022/10/19 03:26:02;;;;;;;;;;;;;;;;;;2071381;28;19914;-86
2022/10/19 03:27:02;;;;;;;;;;;;;;;;;;2071507;28;20412;-88
2022/10/19 03:28:02;;;;;;;;;;;;;;;;;;2063304;28;19949;-87
2022/10/19 03:29:03;;;;;;;;;;;;;;;;;;2055295;28;19926;-88
2022/10/19 03:30:03;;;;;;;;;;;;;;;;;;2063384;28;20033;-87
2022/10/19 03:31:04;;;;;;;;;;;;;;;;;;2071564;28;19949;-87
2022/10/19 03:32:04;;;;;;;;;;;;;;;;;;2063325;28;19917;-87
2022/10/19 03:33:04;;;;;;;;;;;;;;;;;;2063088;28;20094;-87
2022/10/19 03:34:04;;;;;;;;;;;;;;;;;;2071918;28;19913;-86
2022/10/19 03:35:05;;;;;;;;;;;;;;;;;;2073453;28;19979;-87
2022/10/19 03:36:13;;;;;;;;;;;;;;;;;;2073300;28;19960;-87
2022/10/19 03:37:14;;;;;;;;;;;;;;;;;;2064457;28;19918;-87
2022/10/19 03:38:14;;;;;;;;;;;;;;;;;;2064722;28;19998;-86
2022/10/19 03:39:15;;;;;;;;;;;;;;;;;;2064439;28;19925;-87
2022/10/19 03:40:15;;;;;;;;;;;;;;;;;;2064685;28;20004;-87
2022/10/19 03:41:15;;;;;;;;;;;;;;;;;;2072826;28;19924;-86
2022/10/19 03:42:16;;;;;;;;;;;;;;;;;;2064674;28;19921;-87
2022/10/19 03:43:16;;;;;;;;;;;;;;;;;;2073410;28;19925;-87
2022/10/19 03:44:16;;;;;;;;;;;;;;;;;;2064565;28;20405;-87
2022/10/19 03:45:16;;;;;;;;;;;;;;;;;;2064651;28;19968;-87
2022/10/19 03:46:17;;;;;;;;;;;;;;;;;;2073411;28;20398;-87
2022/10/19 03:47:17;;;;;;;;;;;;;;;;;;1718922;28;10235745;-87
2022/10/19 03:48:17;;;;;;;;;;;;;;;;;;2073689;28;20242;-86
2022/10/19 03:49:18;;;;;;;;;;;;;;;;;;2073394;28;19921;-86
2022/10/19 03:50:19;;;;;;;;;;;;;;;;;;2064463;28;19918;-87
2022/10/19 03:51:21;;;;;;;;;;;;;;;;;;2064475;28;19917;-87
2022/10/19 03:52:21;;;;;;;;;;;;;;;;;;2072723;28;20395;-87
2022/10/19 03:53:21;;;;;;;;;;;;;;;;;;2073208;28;19952;-88
2022/10/19 03:54:22;;;;;;;;;;;;;;;;;;2064435;28;19913;-87
2022/10/19 03:55:22;;;;;;;;;;;;;;;;;;2056220;28;19914;-87
2022/10/19 03:56:23;;;;;;;;;;;;;;;;;;2064506;28;19960;-87
2022/10/19 03:57:24;;;;;;;;;;;;;;;;;;2073250;28;20439;-88
2022/10/19 03:58:24;;;;;;;;;;;;;;;;;;2073166;28;19971;-87
2022/10/19 03:59:24;;;;;;;;;;;;;;;;;;2064601;28;20008;-87
2022/10/19 04:00:25;;;;;;;;;;;;;;;;;;2064607;28;19913;-87
2022/10/19 04:01:33;;;;;;;;;;;;;;;;;;2073196;28;19920;-86
2022/10/19 04:02:33;;;;;;;;;;;;;;;;;;2073280;28;20277;-86
2022/10/19 04:03:33;;;;;;;;;;;;;;;;;;2064654;28;20280;-86
2022/10/19 04:04:34;;;;;;;;;;;;;;;;;;2064650;28;19914;-87
2022/10/19 04:05:34;;;;;;;;;;;;;;;;;;2073062;28;19914;-87
2022/10/19 04:06:36;;;;;;;;;;;;;;;;;;2064375;28;19993;-86
2022/10/19 04:07:36;;;;;;;;;;;;;;;;;;2056438;28;20325;-87
2022/10/19 04:08:36;;;;;;;;;;;;;;;;;;2056263;28;19921;-87
2022/10/19 04:09:38;;;;;;;;;;;;;;;;;;2064512;28;20400;-87
2022/10/19 04:10:38;;;;;;;;;;;;;;;;;;2073195;28;19924;-87
2022/10/19 04:11:38;;;;;;;;;;;;;;;;;;2073307;28;20381;-87
2022/10/19 04:12:38;;;;;;;;;;;;;;;;;;2070076;28;19928;-87
2022/10/19 04:13:39;;;;;;;;;;;;;;;;;;2064432;28;19918;-88
2022/10/19 04:14:39;;;;;;;;;;;;;;;;;;2056305;28;20322;-87
2022/10/19 04:15:39;;;;;;;;;;;;;;;;;;2064392;28;19917;-87
2022/10/19 04:16:40;;;;;;;;;;;;;;;;;;2068106;28;20446;-88
2022/10/19 04:17:40;;;;;;;;;;;;;;;;;;2056231;28;19925;-88
2022/10/19 04:18:40;;;;;;;;;;;;;;;;;;2048085;29;19918;-88
2022/10/19 04:19:41;;;;;;;;;;;;;;;;;;2056281;28;19947;-88
2022/10/19 04:20:42;;;;;;;;;;;;;;;;;;2065037;28;20463;-88
2022/10/19 04:21:43;;;;;;;;;;;;;;;;;;2056110;28;19953;-87
2022/10/19 04:22:43;;;;;;;;;;;;;;;;;;2056553;28;19922;-87
2022/10/19 04:23:44;;;;;;;;;;;;;;;;;;2065036;28;20242;-87
2022/10/19 04:24:45;;;;;;;;;;;;;;;;;;2056157;28;19952;-87
2022/10/19 04:25:46;;;;;;;;;;;;;;;;;;2056461;28;19996;-87
2022/10/19 04:26:47;;;;;;;;;;;;;;;;;;2056211;28;19929;-87
2022/10/19 04:27:47;;;;;;;;;;;;;;;;;;2057169;28;19945;-87
2022/10/19 04:28:48;;;;;;;;;;;;;;;;;;2065006;28;19976;-86
2022/10/19 04:29:48;;;;;;;;;;;;;;;;;;2056207;28;19914;-86
2022/10/19 04:30:48;;;;;;;;;;;;;;;;;;2048475;29;19985;-85
2022/10/19 04:31:50;;;;;;;;;;;;;;;;;;2048208;29;19925;-87
2022/10/19 04:32:50;;;;;;;;;;;;;;;;;;2056846;28;19914;-86
2022/10/19 04:33:50;;;;;;;;;;;;;;;;;;2056574;28;19965;-86
2022/10/19 04:34:51;;;;;;;;;;;;;;;;;;2057412;28;19918;-86
2022/10/19 04:35:56;;;;;;;;;;;;;;;;;;2064074;28;20021;-87
2022/10/19 04:36:58;;;;;;;;;;;;;;;;;;2067988;28;19930;-87
2022/10/19 04:37:58;;;;;;;;;;;;;;;;;;2075706;28;19918;-88
2022/10/19 04:38:58;;;;;;;;;;;;;;;;;;2075341;28;19921;-88
2022/10/19 04:39:59;;;;;;;;;;;;;;;;;;2075464;28;19945;-87
2022/10/19 04:41:03;;;;;;;;;;;;;;;;;;2069596;28;19914;-87
2022/10/19 04:42:03;;;;;;;;;;;;;;;;;;2066203;28;19917;-88
2022/10/19 04:43:04;;;;;;;;;;;;;;;;;;2065263;28;20334;-87
2022/10/19 04:44:08;;;;;;;;;;;;;;;;;;2060259;28;19990;-87
2022/10/19 04:45:08;;;;;;;;;;;;;;;;;;1710530;28;10001209;-87
2022/10/19 04:46:10;;;;;;;;;;;;;;;;;;2056650;28;20477;-87
2022/10/19 04:47:10;;;;;;;;;;;;;;;;;;2045247;28;19914;-88
2022/10/19 04:48:10;;;;;;;;;;;;;;;;;;2048290;29;19958;-88
2022/10/19 04:49:12;;;;;;;;;;;;;;;;;;2056493;28;20051;-88
2022/10/19 04:50:12;;;;;;;;;;;;;;;;;;2056420;28;20393;-87
2022/10/19 04:51:13;;;;;;;;;;;;;;;;;;2048453;29;19914;-88
2022/10/19 04:52:13;;;;;;;;;;;;;;;;;;2056396;28;19914;-88
2022/10/19 04:53:13;;;;;;;;;;;;;;;;;;2065240;28;20451;-87
2022/10/19 04:54:13;;;;;;;;;;;;;;;;;;2057175;28;20111;-88
2022/10/19 04:55:14;;;;;;;;;;;;;;;;;;2059334;28;19950;-88
2022/10/19 04:56:16;;;;;;;;;;;;;;;;;;2066687;28;19918;-86
2022/10/19 04:57:16;;;;;;;;;;;;;;;;;;2066574;28;19918;-86
2022/10/19 04:58:16;;;;;;;;;;;;;;;;;;1715333;28;10260036;-87
2022/10/19 04:59:16;;;;;;;;;;;;;;;;;;2065554;28;19913;-87
2022/10/19 05:00:17;;;;;;;;;;;;;;;;;;2065335;28;20243;-88
2022/10/19 05:01:18;;;;;;;;;;;;;;;;;;2065474;28;19914;-88
2022/10/19 05:02:18;;;;;;;;;;;;;;;;;;2056320;28;20332;-86
2022/10/19 05:03:18;;;;;;;;;;;;;;;;;;2048123;29;19978;-86
2022/10/19 05:04:19;;;;;;;;;;;;;;;;;;2057225;28;20358;-87
2022/10/19 05:05:19;;;;;;;;;;;;;;;;;;2056182;28;19972;-88
2022/10/19 05:06:19;;;;;;;;;;;;;;;;;;2048315;29;19914;-88
2022/10/19 05:07:19;;;;;;;;;;;;;;;;;;2048266;29;19930;-87
2022/10/19 05:08:20;;;;;;;;;;;;;;;;;;2056240;28;19972;-88
2022/10/19 05:09:20;;;;;;;;;;;;;;;;;;2064829;28;20012;-88
2022/10/19 05:10:20;;;;;;;;;;;;;;;;;;2056177;28;20020;-87
2022/10/19 05:11:21;;;;;;;;;;;;;;;;;;2047910;29;19925;-87
2022/10/19 05:12:21;;;;;;;;;;;;;;;;;;2056004;28;19925;-87
2022/10/19 05:13:22;;;;;;;;;;;;;;;;;;2064865;28;19923;-87
2022/10/19 05:14:22;;;;;;;;;;;;;;;;;;2064710;28;19913;-87
2022/10/19 05:15:22;;;;;;;;;;;;;;;;;;2064864;28;19998;-87
2022/10/19 05:16:23;;;;;;;;;;;;;;;;;;2058375;28;20013;-87
2022/10/19 05:17:23;;;;;;;;;;;;;;;;;;2064274;28;20016;-87
2022/10/19 05:18:24;;;;;;;;;;;;;;;;;;2063904;28;19914;-87
2022/10/19 05:19:25;;;;;;;;;;;;;;;;;;1706708;28;10373372;-87
2022/10/19 05:20:26;;;;;;;;;;;;;;;;;;2072917;28;19921;-87
2022/10/19 05:21:27;;;;;;;;;;;;;;;;;;2064175;28;20301;-87
2022/10/19 05:22:27;;;;;;;;;;;;;;;;;;2064409;28;20321;-87
2022/10/19 05:23:28;;;;;;;;;;;;;;;;;;2064103;28;19921;-86
2022/10/19 05:24:31;;;;;;;;;;;;;;;;;;2056008;28;19920;-87
2022/10/19 05:25:31;;;;;;;;;;;;;;;;;;2056272;28;20368;-87
2022/10/19 05:26:31;;;;;;;;;;;;;;;;;;2064078;28;19961;-87
2022/10/19 05:27:32;;;;;;;;;;;;;;;;;;2064204;28;20388;-87
2022/10/19 05:28:33;;;;;;;;;;;;;;;;;;2064265;28;20022;-87
2022/10/19 05:29:33;;;;;;;;;;;;;;;;;;2063845;28;20502;-86
2022/10/19 05:30:34;;;;;;;;;;;;;;;;;;2055911;28;20001;-87
2022/10/19 05:31:34;;;;;;;;;;;;;;;;;;2055887;28;19941;-87
2022/10/19 05:32:35;;;;;;;;;;;;;;;;;;2063833;28;19913;-87
2022/10/19 05:33:36;;;;;;;;;;;;;;;;;;2072575;28;19913;-87
2022/10/19 05:34:36;;;;;;;;;;;;;;;;;;2072592;28;20068;-87
2022/10/19 05:35:36;;;;;;;;;;;;;;;;;;2071807;28;19963;-87
2022/10/19 05:36:37;;;;;;;;;;;;;;;;;;1716545;28;10272429;-87
2022/10/19 05:37:38;;;;;;;;;;;;;;;;;;2072411;28;19921;-87
2022/10/19 05:38:38;;;;;;;;;;;;;;;;;;2063632;28;19957;-87
2022/10/19 05:39:38;;;;;;;;;;;;;;;;;;2064004;28;20004;-87
2022/10/19 05:40:43;;;;;;;;;;;;;;;;;;2072594;28;19948;-87
2022/10/19 05:41:44;;;;;;;;;;;;;;;;;;2063806;28;19914;-87
2022/10/19 05:42:44;;;;;;;;;;;;;;;;;;2055761;28;20318;-87
2022/10/19 05:43:45;;;;;;;;;;;;;;;;;;2064044;28;20001;-87
2022/10/19 05:44:46;;;;;;;;;;;;;;;;;;2072670;28;20072;-87
2022/10/19 05:45:46;;;;;;;;;;;;;;;;;;2063914;28;19917;-87
2022/10/19 05:46:47;;;;;;;;;;;;;;;;;;2064178;28;19913;-87
2022/10/19 05:47:47;;;;;;;;;;;;;;;;;;2072828;28;20288;-88
2022/10/19 05:48:47;;;;;;;;;;;;;;;;;;2064085;28;19918;-89
2022/10/19 05:49:48;;;;;;;;;;;;;;;;;;2056016;28;19930;-88
2022/10/19 05:50:52;;;;;;;;;;;;;;;;;;2063873;28;19914;-87
2022/10/19 05:51:52;;;;;;;;;;;;;;;;;;2063956;28;20376;-88
2022/10/19 05:52:53;;;;;;;;;;;;;;;;;;2063859;28;19996;-89
2022/10/19 05:53:53;;;;;;;;;;;;;;;;;;2071990;28;19913;-88
2022/10/19 05:54:55;;;;;;;;;;;;;;;;;;2072739;28;19914;-87
2022/10/19 05:55:55;;;;;;;;;;;;;;;;;;2072775;28;19995;-89
2022/10/19 05:56:56;;;;;;;;;;;;;;;;;;2063491;28;20426;-89
2022/10/19 05:57:56;;;;;;;;;;;;;;;;;;2063814;28;20385;-89
2022/10/19 05:59:04;;;;;;;;;;;;;;;;;;2071891;28;19921;-89
2022/10/19 06:00:04;;;;;;;;;;;;;;;;;;2064044;28;20647;-89
2022/10/19 06:01:05;;;;;;;;;;;;;;;;;;2063826;28;19926;-89
2022/10/19 06:02:05;;;;;;;;;;;;;;;;;;2063938;28;20380;-89
2022/10/19 06:03:06;;;;;;;;;;;;;;;;;;2063702;28;19945;-89
2022/10/19 06:04:06;;;;;;;;;;;;;;;;;;2071771;28;19978;-89
2022/10/19 06:05:06;;;;;;;;;;;;;;;;;;2063817;28;19949;-89
2022/10/19 06:06:10;;;;;;;;;;;;;;;;;;2064187;28;20044;-89
2022/10/19 06:07:10;;;;;;;;;;;;;;;;;;2072074;28;20341;-89
2022/10/19 06:14:27;;;;;;;;;;;;;;;;;;2062706;28;19926;-88
2022/10/19 06:15:27;;;;;;;;;;;;;;;;;;2064449;28;19922;-88
2022/10/19 06:16:29;;;;;;;;;;;;;;;;;;2063635;28;19914;-88
2022/10/19 06:17:29;;;;;;;;;;;;;;;;;;2063331;28;19921;-88
2022/10/19 06:18:31;;;;;;;;;;;;;;;;;;2063731;28;19936;-88
2022/10/19 06:19:31;;;;;;;;;;;;;;;;;;2063797;28;19951;-88
2022/10/19 06:20:35;;;;;;;;;;;;;;;;;;2063434;28;20388;-88
2022/10/19 06:21:35;;;;;;;;;;;;;;;;;;2063707;28;20578;-87
2022/10/19 06:22:35;;;;;;;;;;;;;;;;;;2063368;28;19924;-87
2022/10/19 06:23:36;;;;;;;;;;;;;;;;;;2063705;28;19917;-88
2022/10/19 06:24:36;;;;;;;;;;;;;;;;;;2071500;28;20008;-86
2022/10/19 06:25:36;;;;;;;;;;;;;;;;;;2063670;28;19914;-87
2022/10/19 06:26:37;;;;;;;;;;;;;;;;;;2063689;28;19948;-88
2022/10/19 06:27:37;;;;;;;;;;;;;;;;;;2063530;28;20033;-88
2022/10/19 06:28:38;;;;;;;;;;;;;;;;;;1020570;28;10021084;-88
2022/10/19 06:29:38;;;;;;;;;;;;;;;;;;2071859;28;19909;-87
2022/10/19 06:30:39;;;;;;;;;;;;;;;;;;2071676;28;19935;-87
2022/10/19 06:31:39;;;;;;;;;;;;;;;;;;2063381;28;20016;-86
2022/10/19 06:32:40;;;;;;;;;;;;;;;;;;2055643;28;20086;-87
2022/10/19 06:33:41;;;;;;;;;;;;;;;;;;2055488;28;19968;-87
2022/10/19 06:34:41;;;;;;;;;;;;;;;;;;2055260;28;19918;-86
2022/10/19 06:35:41;;;;;;;;;;;;;;;;;;2063278;28;19968;-87
2022/10/19 06:36:42;;;;;;;;;;;;;;;;;;2063300;28;20012;-87
2022/10/19 06:37:42;;;;;;;;;;;;;;;;;;2063432;28;20456;-88
2022/10/19 06:38:43;;;;;;;;;;;;;;;;;;2063718;28;19918;-86
2022/10/19 06:39:43;;;;;;;;;;;;;;;;;;2063960;28;19914;-86
2022/10/19 06:40:43;;;;;;;;;;;;;;;;;;2072072;28;20337;-87
2022/10/19 06:41:44;;;;;;;;;;;;;;;;;;2068085;28;19933;-87
2022/10/19 06:42:44;;;;;;;;;;;;;;;;;;2063669;28;20439;-87
2022/10/19 06:43:48;;;;;;;;;;;;;;;;;;2066260;28;19917;-88
2022/10/19 06:44:48;;;;;;;;;;;;;;;;;;2064183;28;19918;-87
2022/10/19 06:45:48;;;;;;;;;;;;;;;;;;2063814;28;19953;-87
2022/10/19 06:46:48;;;;;;;;;;;;;;;;;;2064181;28;19953;-88
2022/10/19 06:47:49;;;;;;;;;;;;;;;;;;2064142;28;20447;-87
2022/10/19 06:48:50;;;;;;;;;;;;;;;;;;2063596;28;19914;-87
2022/10/19 06:49:50;;;;;;;;;;;;;;;;;;2064022;28;19918;-88
2022/10/19 06:51:01;;;;;;;;;;;;;;;;;;1713295;28;10003504;-86
2022/10/19 06:52:02;;;;;;;;;;;;;;;;;;2071450;28;19956;-97
2022/10/19 06:56:36;;;;;;;;;;;;;;;;;;2070627;28;19914;-96
2022/10/19 06:57:37;;;;;;;;;;;;;;;;;;2063569;28;19929;-96
2022/10/19 06:58:41;;;;;;;;;;;;;;;;;;2066498;28;19989;-96
2022/10/19 06:59:41;;;;;;;;;;;;;;;;;;2067021;28;19910;-96
2022/10/19 07:00:42;;;;;;;;;;;;;;;;;;2058474;28;19930;-96
2022/10/19 07:01:44;;;;;;;;;;;;;;;;;;2058920;28;19917;-95
2022/10/19 07:02:51;;;;;;;;;;;;;;;;;;2067648;28;19955;-96
2022/10/19 07:03:52;;;;;;;;;;;;;;;;;;2094703;23;19936;-96
2022/10/19 07:04:53;;;;;;;;;;;;;;;;;;2072559;28;19918;-96
2022/10/19 07:05:58;;;;;;;;;;;;;;;;;;2072369;28;19913;-87
2022/10/19 07:06:58;;;;;;;;;;;;;;;;;;2056715;28;19921;-86
2022/10/19 07:07:59;;;;;;;;;;;;;;;;;;2063367;28;20443;-86
2022/10/19 07:08:59;;;;;;;;;;;;;;;;;;2064191;28;19961;-86
2022/10/19 07:09:59;;;;;;;;;;;;;;;;;;2067919;28;19936;-88
2022/10/19 07:11:02;;;;;;;;;;;;;;;;;;2068137;28;19918;-87
2022/10/19 07:12:02;;;;;;;;;;;;;;;;;;2059648;28;19997;-87
2022/10/19 07:13:02;;;;;;;;;;;;;;;;;;2068083;28;19996;-87
2022/10/19 07:14:03;;;;;;;;;;;;;;;;;;2075200;28;19945;-88
2022/10/19 07:15:03;;;;;;;;;;;;;;;;;;2082421;28;19920;-88
2022/10/19 07:16:07;;;;;;;;;;;;;;;;;;2091574;28;19988;-86
2022/10/19 07:17:09;;;;;;;;;;;;;;;;;;2083168;28;19932;-87
2022/10/19 07:18:10;;;;;;;;;;;;;;;;;;2067788;28;19976;-87
2022/10/19 07:19:12;;;;;;;;;;;;;;;;;;2075923;28;19945;-88
2022/10/19 07:20:12;;;;;;;;;;;;;;;;;;2089733;28;20079;-88